sensor_id;sensor_type;location;lat;lon;timestamp;temperature;humidity
25963;DHT22;13760;52.588;13.406;2022-09-02T00:00:44;12.80;99.90
25963;DHT22;13760;52.588;13.406;2022-09-02T00:05:54;12.90;99.90
25963;DHT22;13760;52.588;13.406;2022-09-02T00:08:20;12.90;99.90
25963;DHT22;13760;52.588;13.406;2022-09-02T00:10:45;12.90;99.90
25963;DHT22;13760;52.588;13.406;2022-09-02T00:13:13;13.00;99.90
25963;DHT22;13760;52.588;13.406;2022-09-02T00:15:40;13.10;99.90
25963;DHT22;13760;52.588;13.406;2022-09-02T00:18:06;13.10;99.90
25963;DHT22;13760;52.588;13.406;2022-09-02T00:20:32;13.20;99.90
25963;DHT22;13760;52.588;13.406;2022-09-02T00:23:00;13.20;99.90
25963;DHT22;13760;52.588;13.406;2022-09-02T00:25:27;13.30;99.90
25963;DHT22;13760;52.588;13.406;2022-09-02T00:27:52;13.30;99.90
25963;DHT22;13760;52.588;13.406;2022-09-02T00:30:18;13.30;99.90
25963;DHT22;13760;52.588;13.406;2022-09-02T00:32:46;13.40;99.90
25963;DHT22;13760;52.588;13.406;2022-09-02T00:35:14;13.40;99.90
25963;DHT22;13760;52.588;13.406;2022-09-02T00:37:40;13.40;99.90
25963;DHT22;13760;52.588;13.406;2022-09-02T00:40:07;13.50;99.90
25963;DHT22;13760;52.588;13.406;2022-09-02T00:42:41;13.40;99.90
25963;DHT22;13760;52.588;13.406;2022-09-02T00:45:07;13.40;99.90
25963;DHT22;13760;52.588;13.406;2022-09-02T00:47:33;13.50;99.90
25963;DHT22;13760;52.588;13.406;2022-09-02T00:50:04;13.60;99.90
25963;DHT22;13760;52.588;13.406;2022-09-02T00:52:43;13.60;99.90
25963;DHT22;13760;52.588;13.406;2022-09-02T00:57:51;13.60;99.90
25963;DHT22;13760;52.588;13.406;2022-09-02T01:00:37;13.60;99.90
25963;DHT22;13760;52.588;13.406;2022-09-02T01:03:10;13.70;99.90
25963;DHT22;13760;52.588;13.406;2022-09-02T01:05:38;13.70;99.90
25963;DHT22;13760;52.588;13.406;2022-09-02T01:08:07;13.70;99.90
25963;DHT22;13760;52.588;13.406;2022-09-02T01:10:46;13.70;99.90
25963;DHT22;13760;52.588;13.406;2022-09-02T01:13:16;13.70;99.90
25963;DHT22;13760;52.588;13.406;2022-09-02T01:15:47;13.70;99.90
25963;DHT22;13760;52.588;13.406;2022-09-02T01:18:26;13.70;99.90
25963;DHT22;13760;52.588;13.406;2022-09-02T01:20:56;13.70;99.90
25963;DHT22;13760;52.588;13.406;2022-09-02T01:23:36;13.70;99.90
25963;DHT22;13760;52.588;13.406;2022-09-02T01:26:04;13.70;99.90
25963;DHT22;13760;52.588;13.406;2022-09-02T01:28:35;13.70;99.90
25963;DHT22;13760;52.588;13.406;2022-09-02T01:31:03;13.60;99.90
25963;DHT22;13760;52.588;13.406;2022-09-02T01:33:32;13.60;99.90
25963;DHT22;13760;52.588;13.406;2022-09-02T01:35:58;13.60;99.90
25963;DHT22;13760;52.588;13.406;2022-09-02T01:38:32;13.60;99.90
25963;DHT22;13760;52.588;13.406;2022-09-02T01:41:01;13.60;99.90
25963;DHT22;13760;52.588;13.406;2022-09-02T01:43:30;13.60;99.90
25963;DHT22;13760;52.588;13.406;2022-09-02T01:46:04;13.60;99.90
25963;DHT22;13760;52.588;13.406;2022-09-02T01:48:42;13.60;99.90
25963;DHT22;13760;52.588;13.406;2022-09-02T01:51:16;13.60;99.90
25963;DHT22;13760;52.588;13.406;2022-09-02T01:53:42;13.60;99.90
25963;DHT22;13760;52.588;13.406;2022-09-02T01:56:13;13.70;99.90
25963;DHT22;13760;52.588;13.406;2022-09-02T01:58:45;13.70;99.90
25963;DHT22;13760;52.588;13.406;2022-09-02T02:01:13;13.70;99.90
25963;DHT22;13760;52.588;13.406;2022-09-02T02:03:38;13.70;99.90
25963;DHT22;13760;52.588;13.406;2022-09-02T02:06:09;13.70;99.90
25963;DHT22;13760;52.588;13.406;2022-09-02T02:08:36;13.70;99.90
25963;DHT22;13760;52.588;13.406;2022-09-02T02:11:03;13.70;99.90
25963;DHT22;13760;52.588;13.406;2022-09-02T02:13:34;13.70;99.90
25963;DHT22;13760;52.588;13.406;2022-09-02T02:16:02;13.70;99.90
25963;DHT22;13760;52.588;13.406;2022-09-02T02:18:28;13.70;99.90
25963;DHT22;13760;52.588;13.406;2022-09-02T02:20:54;13.70;99.90
25963;DHT22;13760;52.588;13.406;2022-09-02T02:23:20;13.70;99.90
25963;DHT22;13760;52.588;13.406;2022-09-02T02:25:49;13.70;99.90
25963;DHT22;13760;52.588;13.406;2022-09-02T02:28:15;13.60;99.90
25963;DHT22;13760;52.588;13.406;2022-09-02T02:30:41;13.60;99.90
25963;DHT22;13760;52.588;13.406;2022-09-02T02:33:09;13.60;99.90
25963;DHT22;13760;52.588;13.406;2022-09-02T02:35:38;13.60;99.90
25963;DHT22;13760;52.588;13.406;2022-09-02T02:38:04;13.60;99.90
25963;DHT22;13760;52.588;13.406;2022-09-02T02:40:30;13.50;99.90
25963;DHT22;13760;52.588;13.406;2022-09-02T02:42:55;13.50;99.90
25963;DHT22;13760;52.588;13.406;2022-09-02T02:45:22;13.50;99.90
25963;DHT22;13760;52.588;13.406;2022-09-02T02:47:48;13.50;99.90
25963;DHT22;13760;52.588;13.406;2022-09-02T02:50:16;13.50;99.90
25963;DHT22;13760;52.588;13.406;2022-09-02T02:52:42;13.50;99.90
25963;DHT22;13760;52.588;13.406;2022-09-02T02:55:10;13.50;99.90
25963;DHT22;13760;52.588;13.406;2022-09-02T02:57:37;13.50;99.90
25963;DHT22;13760;52.588;13.406;2022-09-02T03:00:12;13.50;99.90
25963;DHT22;13760;52.588;13.406;2022-09-02T03:02:39;13.40;99.90
25963;DHT22;13760;52.588;13.406;2022-09-02T03:05:06;13.40;99.90
25963;DHT22;13760;52.588;13.406;2022-09-02T03:07:31;13.40;99.90
25963;DHT22;13760;52.588;13.406;2022-09-02T03:09:57;13.40;99.90
25963;DHT22;13760;52.588;13.406;2022-09-02T03:12:23;13.30;99.90
25963;DHT22;13760;52.588;13.406;2022-09-02T03:14:49;13.30;99.90
25963;DHT22;13760;52.588;13.406;2022-09-02T03:17:15;13.40;99.90
25963;DHT22;13760;52.588;13.406;2022-09-02T03:19:41;13.30;99.90
25963;DHT22;13760;52.588;13.406;2022-09-02T03:22:06;13.30;99.90
25963;DHT22;13760;52.588;13.406;2022-09-02T03:24:32;13.30;99.90
25963;DHT22;13760;52.588;13.406;2022-09-02T03:26:57;13.30;99.90
25963;DHT22;13760;52.588;13.406;2022-09-02T03:29:23;13.20;99.90
25963;DHT22;13760;52.588;13.406;2022-09-02T03:31:48;13.20;99.90
25963;DHT22;13760;52.588;13.406;2022-09-02T03:34:14;13.20;99.90
25963;DHT22;13760;52.588;13.406;2022-09-02T03:36:40;13.20;99.90
25963;DHT22;13760;52.588;13.406;2022-09-02T03:39:09;13.10;99.90
25963;DHT22;13760;52.588;13.406;2022-09-02T03:41:35;13.10;99.90
25963;DHT22;13760;52.588;13.406;2022-09-02T03:44:02;13.10;99.90
25963;DHT22;13760;52.588;13.406;2022-09-02T03:46:36;13.00;99.90
25963;DHT22;13760;52.588;13.406;2022-09-02T03:49:13;13.10;99.90
25963;DHT22;13760;52.588;13.406;2022-09-02T03:51:44;13.00;99.90
25963;DHT22;13760;52.588;13.406;2022-09-02T03:54:16;13.00;99.90
25963;DHT22;13760;52.588;13.406;2022-09-02T03:56:47;12.90;99.90
25963;DHT22;13760;52.588;13.406;2022-09-02T03:59:13;12.90;99.90
25963;DHT22;13760;52.588;13.406;2022-09-02T04:01:39;12.90;99.90
25963;DHT22;13760;52.588;13.406;2022-09-02T04:04:09;12.80;99.90
25963;DHT22;13760;52.588;13.406;2022-09-02T04:06:40;12.80;99.90
25963;DHT22;13760;52.588;13.406;2022-09-02T04:09:11;12.70;99.90
25963;DHT22;13760;52.588;13.406;2022-09-02T04:11:37;12.70;99.90
25963;DHT22;13760;52.588;13.406;2022-09-02T04:14:07;12.60;99.90
25963;DHT22;13760;52.588;13.406;2022-09-02T04:16:34;12.60;99.90
25963;DHT22;13760;52.588;13.406;2022-09-02T04:19:05;12.60;99.90
25963;DHT22;13760;52.588;13.406;2022-09-02T04:21:37;12.60;99.90
25963;DHT22;13760;52.588;13.406;2022-09-02T04:24:07;12.60;99.90
25963;DHT22;13760;52.588;13.406;2022-09-02T04:26:36;12.50;99.90
25963;DHT22;13760;52.588;13.406;2022-09-02T04:29:03;12.60;99.90
25963;DHT22;13760;52.588;13.406;2022-09-02T04:31:29;12.60;99.90
25963;DHT22;13760;52.588;13.406;2022-09-02T04:33:56;12.60;99.90
25963;DHT22;13760;52.588;13.406;2022-09-02T04:36:22;12.50;99.90
25963;DHT22;13760;52.588;13.406;2022-09-02T04:38:51;12.60;99.90
25963;DHT22;13760;52.588;13.406;2022-09-02T04:41:28;12.50;99.90
25963;DHT22;13760;52.588;13.406;2022-09-02T04:43:56;12.50;99.90
25963;DHT22;13760;52.588;13.406;2022-09-02T04:46:22;12.50;99.90
25963;DHT22;13760;52.588;13.406;2022-09-02T04:48:49;12.50;99.90
25963;DHT22;13760;52.588;13.406;2022-09-02T04:51:18;12.50;99.90
25963;DHT22;13760;52.588;13.406;2022-09-02T04:53:45;12.50;99.90
25963;DHT22;13760;52.588;13.406;2022-09-02T04:56:13;12.50;99.90
25963;DHT22;13760;52.588;13.406;2022-09-02T04:58:40;12.50;99.90
25963;DHT22;13760;52.588;13.406;2022-09-02T05:01:08;12.50;99.90
25963;DHT22;13760;52.588;13.406;2022-09-02T05:03:34;12.50;99.90
25963;DHT22;13760;52.588;13.406;2022-09-02T05:06:02;12.60;99.90
25963;DHT22;13760;52.588;13.406;2022-09-02T05:08:38;12.50;99.90
25963;DHT22;13760;52.588;13.406;2022-09-02T05:11:09;12.50;99.90
25963;DHT22;13760;52.588;13.406;2022-09-02T05:13:37;12.50;99.90
25963;DHT22;13760;52.588;13.406;2022-09-02T05:16:06;12.50;99.90
25963;DHT22;13760;52.588;13.406;2022-09-02T05:18:34;12.60;99.90
25963;DHT22;13760;52.588;13.406;2022-09-02T05:21:06;12.60;99.90
25963;DHT22;13760;52.588;13.406;2022-09-02T05:23:32;12.50;99.90
25963;DHT22;13760;52.588;13.406;2022-09-02T05:26:05;12.60;99.90
25963;DHT22;13760;52.588;13.406;2022-09-02T05:28:32;12.60;99.90
25963;DHT22;13760;52.588;13.406;2022-09-02T05:31:11;12.70;99.90
25963;DHT22;13760;52.588;13.406;2022-09-02T05:33:40;12.70;99.90
25963;DHT22;13760;52.588;13.406;2022-09-02T05:36:08;12.70;99.90
25963;DHT22;13760;52.588;13.406;2022-09-02T05:38:33;12.70;99.90
25963;DHT22;13760;52.588;13.406;2022-09-02T05:41:04;12.70;99.90
25963;DHT22;13760;52.588;13.406;2022-09-02T05:43:34;12.80;99.90
25963;DHT22;13760;52.588;13.406;2022-09-02T05:46:03;12.80;99.90
25963;DHT22;13760;52.588;13.406;2022-09-02T05:48:31;12.80;99.90
25963;DHT22;13760;52.588;13.406;2022-09-02T05:51:15;12.90;99.90
25963;DHT22;13760;52.588;13.406;2022-09-02T05:53:41;12.90;99.90
25963;DHT22;13760;52.588;13.406;2022-09-02T05:56:06;12.90;99.90
25963;DHT22;13760;52.588;13.406;2022-09-02T05:58:32;13.00;99.90
25963;DHT22;13760;52.588;13.406;2022-09-02T06:00:57;13.00;99.90
25963;DHT22;13760;52.588;13.406;2022-09-02T06:03:23;13.10;99.90
25963;DHT22;13760;52.588;13.406;2022-09-02T06:05:56;13.10;99.90
25963;DHT22;13760;52.588;13.406;2022-09-02T06:08:22;13.20;99.90
25963;DHT22;13760;52.588;13.406;2022-09-02T06:10:48;13.20;99.90
25963;DHT22;13760;52.588;13.406;2022-09-02T06:13:13;13.30;99.90
25963;DHT22;13760;52.588;13.406;2022-09-02T06:15:41;13.30;99.90
25963;DHT22;13760;52.588;13.406;2022-09-02T06:18:11;13.30;99.90
25963;DHT22;13760;52.588;13.406;2022-09-02T06:20:41;13.40;99.90
25963;DHT22;13760;52.588;13.406;2022-09-02T06:23:07;13.40;99.90
25963;DHT22;13760;52.588;13.406;2022-09-02T06:25:36;13.40;99.90
25963;DHT22;13760;52.588;13.406;2022-09-02T06:28:02;13.50;99.90
25963;DHT22;13760;52.588;13.406;2022-09-02T06:30:27;13.50;99.90
25963;DHT22;13760;52.588;13.406;2022-09-02T06:32:53;13.60;99.90
25963;DHT22;13760;52.588;13.406;2022-09-02T06:35:20;13.70;99.90
25963;DHT22;13760;52.588;13.406;2022-09-02T06:37:46;13.70;99.90
25963;DHT22;13760;52.588;13.406;2022-09-02T06:40:12;13.80;99.90
25963;DHT22;13760;52.588;13.406;2022-09-02T06:42:38;13.80;99.90
25963;DHT22;13760;52.588;13.406;2022-09-02T06:45:04;13.90;99.90
25963;DHT22;13760;52.588;13.406;2022-09-02T06:47:29;14.00;99.90
25963;DHT22;13760;52.588;13.406;2022-09-02T06:49:56;14.10;99.90
25963;DHT22;13760;52.588;13.406;2022-09-02T06:52:22;14.30;99.90
25963;DHT22;13760;52.588;13.406;2022-09-02T06:54:47;14.30;99.90
25963;DHT22;13760;52.588;13.406;2022-09-02T06:57:14;14.40;99.90
25963;DHT22;13760;52.588;13.406;2022-09-02T06:59:39;14.50;99.90
25963;DHT22;13760;52.588;13.406;2022-09-02T07:02:05;14.60;99.90
25963;DHT22;13760;52.588;13.406;2022-09-02T07:04:31;14.70;99.90
25963;DHT22;13760;52.588;13.406;2022-09-02T07:07:15;14.80;99.90
25963;DHT22;13760;52.588;13.406;2022-09-02T07:09:41;14.90;99.90
25963;DHT22;13760;52.588;13.406;2022-09-02T07:12:06;15.00;99.90
25963;DHT22;13760;52.588;13.406;2022-09-02T07:14:38;15.10;99.90
25963;DHT22;13760;52.588;13.406;2022-09-02T07:17:04;15.20;99.90
25963;DHT22;13760;52.588;13.406;2022-09-02T07:19:30;15.40;99.90
25963;DHT22;13760;52.588;13.406;2022-09-02T07:21:55;15.60;99.90
25963;DHT22;13760;52.588;13.406;2022-09-02T07:24:21;15.70;99.90
25963;DHT22;13760;52.588;13.406;2022-09-02T07:26:48;15.90;99.90
25963;DHT22;13760;52.588;13.406;2022-09-02T07:29:14;16.10;99.90
25963;DHT22;13760;52.588;13.406;2022-09-02T07:31:42;16.30;99.90
25963;DHT22;13760;52.588;13.406;2022-09-02T07:34:09;16.50;99.90
25963;DHT22;13760;52.588;13.406;2022-09-02T07:36:35;16.80;99.90
25963;DHT22;13760;52.588;13.406;2022-09-02T07:39:03;17.10;99.90
25963;DHT22;13760;52.588;13.406;2022-09-02T07:41:29;17.30;99.90
25963;DHT22;13760;52.588;13.406;2022-09-02T07:43:55;17.50;99.90
25963;DHT22;13760;52.588;13.406;2022-09-02T07:46:21;17.80;99.90
25963;DHT22;13760;52.588;13.406;2022-09-02T07:48:47;17.90;99.90
25963;DHT22;13760;52.588;13.406;2022-09-02T07:51:15;18.10;99.90
25963;DHT22;13760;52.588;13.406;2022-09-02T07:53:41;18.30;99.90
25963;DHT22;13760;52.588;13.406;2022-09-02T07:56:08;18.50;99.90
25963;DHT22;13760;52.588;13.406;2022-09-02T07:58:34;18.60;99.90
25963;DHT22;13760;52.588;13.406;2022-09-02T08:01:00;18.90;99.90
25963;DHT22;13760;52.588;13.406;2022-09-02T08:03:26;18.90;99.90
25963;DHT22;13760;52.588;13.406;2022-09-02T08:05:53;18.90;99.90
25963;DHT22;13760;52.588;13.406;2022-09-02T08:08:19;19.10;99.90
25963;DHT22;13760;52.588;13.406;2022-09-02T08:10:49;19.20;99.90
25963;DHT22;13760;52.588;13.406;2022-09-02T08:13:15;19.30;99.90
25963;DHT22;13760;52.588;13.406;2022-09-02T08:15:41;19.40;99.90
25963;DHT22;13760;52.588;13.406;2022-09-02T08:18:06;19.50;99.90
25963;DHT22;13760;52.588;13.406;2022-09-02T08:20:34;19.60;99.90
25963;DHT22;13760;52.588;13.406;2022-09-02T08:23:03;19.80;99.90
25963;DHT22;13760;52.588;13.406;2022-09-02T08:25:28;19.80;99.90
25963;DHT22;13760;52.588;13.406;2022-09-02T08:27:54;19.80;99.90
25963;DHT22;13760;52.588;13.406;2022-09-02T08:30:20;20.00;99.90
25963;DHT22;13760;52.588;13.406;2022-09-02T08:32:45;20.10;99.90
25963;DHT22;13760;52.588;13.406;2022-09-02T08:35:11;20.10;99.90
25963;DHT22;13760;52.588;13.406;2022-09-02T08:37:39;20.20;99.90
25963;DHT22;13760;52.588;13.406;2022-09-02T08:40:07;20.30;99.90
25963;DHT22;13760;52.588;13.406;2022-09-02T08:42:41;20.30;99.90
25963;DHT22;13760;52.588;13.406;2022-09-02T08:47:35;20.40;99.90
25963;DHT22;13760;52.588;13.406;2022-09-02T08:50:10;20.40;99.90
25963;DHT22;13760;52.588;13.406;2022-09-02T08:53:18;20.50;99.90
25963;DHT22;13760;52.588;13.406;2022-09-02T08:55:54;20.50;99.90
25963;DHT22;13760;52.588;13.406;2022-09-02T08:58:23;20.60;99.90
25963;DHT22;13760;52.588;13.406;2022-09-02T09:01:24;20.70;99.90
25963;DHT22;13760;52.588;13.406;2022-09-02T09:06:52;21.00;99.90
25963;DHT22;13760;52.588;13.406;2022-09-02T09:12:28;21.20;99.90
25963;DHT22;13760;52.588;13.406;2022-09-02T09:15:08;21.40;99.90
25963;DHT22;13760;52.588;13.406;2022-09-02T09:20:16;21.40;99.90
25963;DHT22;13760;52.588;13.406;2022-09-02T09:22:47;21.40;99.90
25963;DHT22;13760;52.588;13.406;2022-09-02T09:25:15;21.50;99.40
25963;DHT22;13760;52.588;13.406;2022-09-02T09:28:03;21.50;99.20
25963;DHT22;13760;52.588;13.406;2022-09-02T09:30:40;21.40;98.90
25963;DHT22;13760;52.588;13.406;2022-09-02T09:33:08;21.20;98.30
25963;DHT22;13760;52.588;13.406;2022-09-02T09:35:53;21.10;98.90
25963;DHT22;13760;52.588;13.406;2022-09-02T09:38:28;21.20;98.70
25963;DHT22;13760;52.588;13.406;2022-09-02T09:41:17;21.30;98.80
25963;DHT22;13760;52.588;13.406;2022-09-02T09:43:44;21.40;97.60
25963;DHT22;13760;52.588;13.406;2022-09-02T09:48:49;21.60;96.40
25963;DHT22;13760;52.588;13.406;2022-09-02T09:51:18;21.50;96.50
25963;DHT22;13760;52.588;13.406;2022-09-02T09:53:44;21.50;96.80
25963;DHT22;13760;52.588;13.406;2022-09-02T10:01:31;21.20;97.50
25963;DHT22;13760;52.588;13.406;2022-09-02T10:09:06;21.10;97.40
25963;DHT22;13760;52.588;13.406;2022-09-02T10:11:58;21.10;97.60
25963;DHT22;13760;52.588;13.406;2022-09-02T10:14:29;21.10;97.40
25963;DHT22;13760;52.588;13.406;2022-09-02T10:17:25;21.20;96.10
25963;DHT22;13760;52.588;13.406;2022-09-02T10:20:11;21.30;96.70
25963;DHT22;13760;52.588;13.406;2022-09-02T10:31:48;21.80;95.60
25963;DHT22;13760;52.588;13.406;2022-09-02T10:34:26;21.90;94.60
25963;DHT22;13760;52.588;13.406;2022-09-02T10:37:19;22.10;93.90
25963;DHT22;13760;52.588;13.406;2022-09-02T10:48:29;22.30;92.10
25963;DHT22;13760;52.588;13.406;2022-09-02T10:51:25;22.30;91.70
25963;DHT22;13760;52.588;13.406;2022-09-02T10:54:10;22.20;90.40
25963;DHT22;13760;52.588;13.406;2022-09-02T10:56:48;22.10;90.30
25963;DHT22;13760;52.588;13.406;2022-09-02T10:59:36;21.90;90.60
25963;DHT22;13760;52.588;13.406;2022-09-02T11:02:11;21.90;91.20
25963;DHT22;13760;52.588;13.406;2022-09-02T11:04:50;22.10;91.00
25963;DHT22;13760;52.588;13.406;2022-09-02T11:07:29;22.10;90.70
25963;DHT22;13760;52.588;13.406;2022-09-02T11:10:07;22.00;91.20
25963;DHT22;13760;52.588;13.406;2022-09-02T11:12:39;22.20;90.70
25963;DHT22;13760;52.588;13.406;2022-09-02T11:18:13;22.40;85.60
25963;DHT22;13760;52.588;13.406;2022-09-02T11:21:26;22.30;85.10
25963;DHT22;13760;52.588;13.406;2022-09-02T11:24:19;22.20;83.40
25963;DHT22;13760;52.588;13.406;2022-09-02T11:30:01;22.30;83.40
25963;DHT22;13760;52.588;13.406;2022-09-02T11:32:42;22.10;83.50
25963;DHT22;13760;52.588;13.406;2022-09-02T11:35:13;21.90;84.10
25963;DHT22;13760;52.588;13.406;2022-09-02T11:43:49;22.30;81.90
25963;DHT22;13760;52.588;13.406;2022-09-02T11:55:10;22.90;81.00
25963;DHT22;13760;52.588;13.406;2022-09-02T11:57:38;22.90;81.90
25963;DHT22;13760;52.588;13.406;2022-09-02T12:00:07;22.70;80.30
25963;DHT22;13760;52.588;13.406;2022-09-02T12:02:44;22.60;80.60
25963;DHT22;13760;52.588;13.406;2022-09-02T12:13:38;22.90;78.80
25963;DHT22;13760;52.588;13.406;2022-09-02T12:21:19;22.30;78.60
25963;DHT22;13760;52.588;13.406;2022-09-02T12:28:44;22.00;80.30
25963;DHT22;13760;52.588;13.406;2022-09-02T12:31:16;22.00;80.90
25963;DHT22;13760;52.588;13.406;2022-09-02T12:33:47;22.00;80.90
25963;DHT22;13760;52.588;13.406;2022-09-02T12:47:38;21.80;80.70
25963;DHT22;13760;52.588;13.406;2022-09-02T12:50:22;21.70;80.70
25963;DHT22;13760;52.588;13.406;2022-09-02T12:52:51;21.70;79.00
25963;DHT22;13760;52.588;13.406;2022-09-02T12:55:34;21.60;78.90
25963;DHT22;13760;52.588;13.406;2022-09-02T12:58:11;21.70;79.30
25963;DHT22;13760;52.588;13.406;2022-09-02T13:04:00;22.20;76.40
25963;DHT22;13760;52.588;13.406;2022-09-02T13:06:46;22.60;76.70
25963;DHT22;13760;52.588;13.406;2022-09-02T13:12:46;23.50;73.70
25963;DHT22;13760;52.588;13.406;2022-09-02T13:15:26;23.60;72.10
25963;DHT22;13760;52.588;13.406;2022-09-02T13:18:08;23.40;71.40
25963;DHT22;13760;52.588;13.406;2022-09-02T13:21:07;23.50;72.10
25963;DHT22;13760;52.588;13.406;2022-09-02T13:26:59;23.80;69.50
25963;DHT22;13760;52.588;13.406;2022-09-02T13:29:59;23.90;72.70
25963;DHT22;13760;52.588;13.406;2022-09-02T13:32:35;23.70;70.80
25963;DHT22;13760;52.588;13.406;2022-09-02T13:35:06;23.70;72.90
25963;DHT22;13760;52.588;13.406;2022-09-02T13:37:38;23.90;73.10
25963;DHT22;13760;52.588;13.406;2022-09-02T13:40:24;24.10;73.30
25963;DHT22;13760;52.588;13.406;2022-09-02T13:42:52;24.20;70.70
25963;DHT22;13760;52.588;13.406;2022-09-02T13:45:20;24.00;71.00
25963;DHT22;13760;52.588;13.406;2022-09-02T13:47:52;23.90;72.00
25963;DHT22;13760;52.588;13.406;2022-09-02T13:50:21;23.70;71.90
25963;DHT22;13760;52.588;13.406;2022-09-02T13:52:52;23.50;72.50
25963;DHT22;13760;52.588;13.406;2022-09-02T13:55:22;23.30;72.60
25963;DHT22;13760;52.588;13.406;2022-09-02T14:03:26;22.90;73.70
25963;DHT22;13760;52.588;13.406;2022-09-02T14:05:53;22.80;74.00
25963;DHT22;13760;52.588;13.406;2022-09-02T14:08:22;22.70;73.10
25963;DHT22;13760;52.588;13.406;2022-09-02T14:10:51;22.50;73.40
25963;DHT22;13760;52.588;13.406;2022-09-02T14:13:19;22.50;73.60
25963;DHT22;13760;52.588;13.406;2022-09-02T14:15:45;22.50;73.80
25963;DHT22;13760;52.588;13.406;2022-09-02T14:18:21;22.50;74.20
25963;DHT22;13760;52.588;13.406;2022-09-02T14:21:15;22.50;74.00
25963;DHT22;13760;52.588;13.406;2022-09-02T14:23:50;22.50;74.70
25963;DHT22;13760;52.588;13.406;2022-09-02T14:26:31;22.50;74.20
25963;DHT22;13760;52.588;13.406;2022-09-02T14:28:58;22.60;75.00
25963;DHT22;13760;52.588;13.406;2022-09-02T14:31:26;22.60;74.60
25963;DHT22;13760;52.588;13.406;2022-09-02T14:33:56;22.50;75.20
25963;DHT22;13760;52.588;13.406;2022-09-02T14:36:32;22.30;75.10
25963;DHT22;13760;52.588;13.406;2022-09-02T14:39:15;22.20;75.20
25963;DHT22;13760;52.588;13.406;2022-09-02T14:41:53;22.20;75.60
25963;DHT22;13760;52.588;13.406;2022-09-02T14:44:30;22.10;75.10
25963;DHT22;13760;52.588;13.406;2022-09-02T14:47:01;22.10;75.90
25963;DHT22;13760;52.588;13.406;2022-09-02T14:49:32;22.20;75.70
25963;DHT22;13760;52.588;13.406;2022-09-02T14:52:02;22.20;74.90
25963;DHT22;13760;52.588;13.406;2022-09-02T14:54:34;22.10;75.10
25963;DHT22;13760;52.588;13.406;2022-09-02T14:57:00;22.10;74.40
25963;DHT22;13760;52.588;13.406;2022-09-02T14:59:26;22.00;74.50
25963;DHT22;13760;52.588;13.406;2022-09-02T15:01:56;22.10;74.90
25963;DHT22;13760;52.588;13.406;2022-09-02T15:04:23;22.10;74.90
25963;DHT22;13760;52.588;13.406;2022-09-02T15:06:52;22.10;75.30
25963;DHT22;13760;52.588;13.406;2022-09-02T15:09:18;22.20;75.30
25963;DHT22;13760;52.588;13.406;2022-09-02T15:11:56;22.10;74.70
25963;DHT22;13760;52.588;13.406;2022-09-02T15:15:00;22.10;73.90
25963;DHT22;13760;52.588;13.406;2022-09-02T15:17:46;22.00;74.00
25963;DHT22;13760;52.588;13.406;2022-09-02T15:20:14;21.80;74.00
25963;DHT22;13760;52.588;13.406;2022-09-02T15:22:45;21.80;74.80
25963;DHT22;13760;52.588;13.406;2022-09-02T15:25:11;21.70;75.20
25963;DHT22;13760;52.588;13.406;2022-09-02T15:27:37;21.70;76.40
25963;DHT22;13760;52.588;13.406;2022-09-02T15:30:06;21.60;75.50
25963;DHT22;13760;52.588;13.406;2022-09-02T15:32:39;21.70;74.60
25963;DHT22;13760;52.588;13.406;2022-09-02T15:35:06;21.60;75.30
25963;DHT22;13760;52.588;13.406;2022-09-02T15:37:34;21.60;73.80
25963;DHT22;13760;52.588;13.406;2022-09-02T15:40:04;21.70;73.30
25963;DHT22;13760;52.588;13.406;2022-09-02T15:42:37;21.70;73.10
25963;DHT22;13760;52.588;13.406;2022-09-02T15:45:05;21.70;72.60
25963;DHT22;13760;52.588;13.406;2022-09-02T15:47:38;21.70;73.10
25963;DHT22;13760;52.588;13.406;2022-09-02T15:50:07;21.70;73.10
25963;DHT22;13760;52.588;13.406;2022-09-02T15:52:34;21.60;73.90
25963;DHT22;13760;52.588;13.406;2022-09-02T15:55:00;21.60;74.10
25963;DHT22;13760;52.588;13.406;2022-09-02T16:00:11;21.60;73.50
25963;DHT22;13760;52.588;13.406;2022-09-02T16:02:42;21.60;74.50
25963;DHT22;13760;52.588;13.406;2022-09-02T16:05:08;21.60;74.20
25963;DHT22;13760;52.588;13.406;2022-09-02T16:07:38;21.50;71.30
25963;DHT22;13760;52.588;13.406;2022-09-02T16:10:06;21.50;72.10
25963;DHT22;13760;52.588;13.406;2022-09-02T16:12:32;21.50;71.70
25963;DHT22;13760;52.588;13.406;2022-09-02T16:14:58;21.40;71.30
25963;DHT22;13760;52.588;13.406;2022-09-02T16:17:26;21.40;70.20
25963;DHT22;13760;52.588;13.406;2022-09-02T16:19:52;21.40;71.00
25963;DHT22;13760;52.588;13.406;2022-09-02T16:22:18;21.30;71.50
25963;DHT22;13760;52.588;13.406;2022-09-02T16:24:47;21.30;72.80
25963;DHT22;13760;52.588;13.406;2022-09-02T16:27:15;21.30;72.80
25963;DHT22;13760;52.588;13.406;2022-09-02T16:30:00;21.10;73.30
25963;DHT22;13760;52.588;13.406;2022-09-02T16:32:26;21.10;73.40
25963;DHT22;13760;52.588;13.406;2022-09-02T16:34:51;21.00;73.80
25963;DHT22;13760;52.588;13.406;2022-09-02T16:37:19;20.90;74.40
25963;DHT22;13760;52.588;13.406;2022-09-02T16:39:45;20.90;74.60
25963;DHT22;13760;52.588;13.406;2022-09-02T16:42:11;20.80;74.90
25963;DHT22;13760;52.588;13.406;2022-09-02T16:44:36;20.80;75.40
25963;DHT22;13760;52.588;13.406;2022-09-02T16:47:02;20.70;75.50
25963;DHT22;13760;52.588;13.406;2022-09-02T16:49:28;20.70;76.20
25963;DHT22;13760;52.588;13.406;2022-09-02T16:51:53;20.70;76.70
25963;DHT22;13760;52.588;13.406;2022-09-02T16:54:19;20.60;76.90
25963;DHT22;13760;52.588;13.406;2022-09-02T16:56:45;20.60;76.90
25963;DHT22;13760;52.588;13.406;2022-09-02T16:59:11;20.60;77.00
25963;DHT22;13760;52.588;13.406;2022-09-02T17:01:38;20.60;77.10
25963;DHT22;13760;52.588;13.406;2022-09-02T17:04:05;20.60;76.40
25963;DHT22;13760;52.588;13.406;2022-09-02T17:06:31;20.60;76.40
25963;DHT22;13760;52.588;13.406;2022-09-02T17:08:57;20.50;75.90
25963;DHT22;13760;52.588;13.406;2022-09-02T17:11:41;20.50;76.50
25963;DHT22;13760;52.588;13.406;2022-09-02T17:14:14;20.40;77.30
25963;DHT22;13760;52.588;13.406;2022-09-02T17:16:45;20.40;77.30
25963;DHT22;13760;52.588;13.406;2022-09-02T17:19:11;20.30;76.80
25963;DHT22;13760;52.588;13.406;2022-09-02T17:21:46;20.30;77.20
25963;DHT22;13760;52.588;13.406;2022-09-02T17:24:13;20.20;77.30
25963;DHT22;13760;52.588;13.406;2022-09-02T17:26:41;20.20;78.20
25963;DHT22;13760;52.588;13.406;2022-09-02T17:29:09;20.10;77.50
25963;DHT22;13760;52.588;13.406;2022-09-02T17:31:37;20.00;78.20